sensor_id;sensor_type;location;lat;lon;timestamp;temperature;humidity
9167;DHT22;4618;48.818;9.088;2023-06-14T00:01:02;13.00;1.00
9167;DHT22;4618;48.818;9.088;2023-06-14T00:03:28;13.10;1.00
9167;DHT22;4618;48.818;9.088;2023-06-14T00:05:54;13.20;1.00
9167;DHT22;4618;48.818;9.088;2023-06-14T00:08:20;13.30;1.00
9167;DHT22;4618;48.818;9.088;2023-06-14T00:10:48;13.40;1.00
9167;DHT22;4618;48.818;9.088;2023-06-14T00:13:14;13.20;1.00
9167;DHT22;4618;48.818;9.088;2023-06-14T00:15:40;13.20;1.00
9167;DHT22;4618;48.818;9.088;2023-06-14T00:18:06;13.10;1.00
9167;DHT22;4618;48.818;9.088;2023-06-14T00:20:32;13.00;1.00
9167;DHT22;4618;48.818;9.088;2023-06-14T00:23:01;12.90;1.00
9167;DHT22;4618;48.818;9.088;2023-06-14T00:25:27;12.80;1.00
9167;DHT22;4618;48.818;9.088;2023-06-14T00:27:54;12.60;1.00
9167;DHT22;4618;48.818;9.088;2023-06-14T00:30:20;12.40;1.00
9167;DHT22;4618;48.818;9.088;2023-06-14T00:32:47;12.30;1.00
9167;DHT22;4618;48.818;9.088;2023-06-14T00:35:12;12.20;1.00
9167;DHT22;4618;48.818;9.088;2023-06-14T00:37:38;12.00;1.00
9167;DHT22;4618;48.818;9.088;2023-06-14T00:40:04;12.10;1.00
9167;DHT22;4618;48.818;9.088;2023-06-14T00:42:31;12.10;1.00
9167;DHT22;4618;48.818;9.088;2023-06-14T00:44:57;12.00;1.00
9167;DHT22;4618;48.818;9.088;2023-06-14T00:47:22;12.10;1.00
9167;DHT22;4618;48.818;9.088;2023-06-14T00:49:49;12.20;1.00
9167;DHT22;4618;48.818;9.088;2023-06-14T00:52:17;12.30;1.00
9167;DHT22;4618;48.818;9.088;2023-06-14T00:54:43;12.20;1.00
9167;DHT22;4618;48.818;9.088;2023-06-14T00:57:10;12.20;1.00
9167;DHT22;4618;48.818;9.088;2023-06-14T00:59:43;12.20;28.00
9167;DHT22;4618;48.818;9.088;2023-06-14T01:02:09;12.10;39.90
9167;DHT22;4618;48.818;9.088;2023-06-14T01:04:35;12.10;27.50
9167;DHT22;4618;48.818;9.088;2023-06-14T01:07:10;12.10;1.00
9167;DHT22;4618;48.818;9.088;2023-06-14T01:10:07;12.20;1.00
9167;DHT22;4618;48.818;9.088;2023-06-14T01:12:44;12.10;1.00
9167;DHT22;4618;48.818;9.088;2023-06-14T01:15:13;12.20;1.00
9167;DHT22;4618;48.818;9.088;2023-06-14T01:17:39;12.20;1.00
9167;DHT22;4618;48.818;9.088;2023-06-14T01:20:12;12.30;1.00
9167;DHT22;4618;48.818;9.088;2023-06-14T01:22:51;12.10;1.00
9167;DHT22;4618;48.818;9.088;2023-06-14T01:25:21;11.90;1.00
9167;DHT22;4618;48.818;9.088;2023-06-14T01:27:57;11.70;1.00
9167;DHT22;4618;48.818;9.088;2023-06-14T01:30:24;11.50;1.00
9167;DHT22;4618;48.818;9.088;2023-06-14T01:32:51;11.60;1.00
9167;DHT22;4618;48.818;9.088;2023-06-14T01:35:18;11.50;1.00
9167;DHT22;4618;48.818;9.088;2023-06-14T01:37:44;11.50;1.00
9167;DHT22;4618;48.818;9.088;2023-06-14T01:40:14;11.60;1.00
9167;DHT22;4618;48.818;9.088;2023-06-14T01:42:40;11.60;1.00
9167;DHT22;4618;48.818;9.088;2023-06-14T01:45:07;11.50;1.00
9167;DHT22;4618;48.818;9.088;2023-06-14T01:47:34;11.50;1.00
9167;DHT22;4618;48.818;9.088;2023-06-14T01:50:04;11.50;1.00
9167;DHT22;4618;48.818;9.088;2023-06-14T01:52:29;11.40;1.00
9167;DHT22;4618;48.818;9.088;2023-06-14T01:54:55;11.40;1.00
9167;DHT22;4618;48.818;9.088;2023-06-14T01:57:23;11.30;7.70
9167;DHT22;4618;48.818;9.088;2023-06-14T01:59:49;11.20;24.90
9167;DHT22;4618;48.818;9.088;2023-06-14T02:02:15;11.30;91.90
9167;DHT22;4618;48.818;9.088;2023-06-14T02:04:41;11.30;99.90
9167;DHT22;4618;48.818;9.088;2023-06-14T02:07:07;11.40;99.90
9167;DHT22;4618;48.818;9.088;2023-06-14T02:09:33;11.30;99.90
9167;DHT22;4618;48.818;9.088;2023-06-14T02:12:00;11.30;99.90
9167;DHT22;4618;48.818;9.088;2023-06-14T02:14:25;11.30;99.90
9167;DHT22;4618;48.818;9.088;2023-06-14T02:16:51;11.10;99.90
9167;DHT22;4618;48.818;9.088;2023-06-14T02:19:19;11.10;99.90
9167;DHT22;4618;48.818;9.088;2023-06-14T02:21:46;11.00;99.90
9167;DHT22;4618;48.818;9.088;2023-06-14T02:24:12;10.90;99.90
9167;DHT22;4618;48.818;9.088;2023-06-14T02:26:38;10.80;99.90
9167;DHT22;4618;48.818;9.088;2023-06-14T02:29:04;10.80;99.90
9167;DHT22;4618;48.818;9.088;2023-06-14T02:31:33;10.80;99.90
9167;DHT22;4618;48.818;9.088;2023-06-14T02:33:59;10.80;99.90
9167;DHT22;4618;48.818;9.088;2023-06-14T02:36:24;10.80;99.90
9167;DHT22;4618;48.818;9.088;2023-06-14T02:38:50;10.70;99.90
9167;DHT22;4618;48.818;9.088;2023-06-14T02:41:15;10.70;99.90
9167;DHT22;4618;48.818;9.088;2023-06-14T02:43:41;10.80;99.90
9167;DHT22;4618;48.818;9.088;2023-06-14T02:46:07;10.80;99.90
9167;DHT22;4618;48.818;9.088;2023-06-14T02:48:33;10.60;99.90
9167;DHT22;4618;48.818;9.088;2023-06-14T02:50:58;10.40;99.90
9167;DHT22;4618;48.818;9.088;2023-06-14T02:53:24;10.30;99.90
9167;DHT22;4618;48.818;9.088;2023-06-14T02:55:49;10.30;99.90
9167;DHT22;4618;48.818;9.088;2023-06-14T02:58:15;10.30;99.90
9167;DHT22;4618;48.818;9.088;2023-06-14T03:42:17;10.20;99.90
9167;DHT22;4618;48.818;9.088;2023-06-14T03:44:42;10.50;99.90
9167;DHT22;4618;48.818;9.088;2023-06-14T03:47:08;10.50;99.90
9167;DHT22;4618;48.818;9.088;2023-06-14T03:49:34;10.40;99.90
9167;DHT22;4618;48.818;9.088;2023-06-14T03:52:00;10.40;99.90
9167;DHT22;4618;48.818;9.088;2023-06-14T03:54:25;10.40;99.90
9167;DHT22;4618;48.818;9.088;2023-06-14T03:56:52;10.40;99.90
9167;DHT22;4618;48.818;9.088;2023-06-14T03:59:18;10.50;99.90
9167;DHT22;4618;48.818;9.088;2023-06-14T04:01:43;10.50;99.90
9167;DHT22;4618;48.818;9.088;2023-06-14T04:33:37;10.80;1.00
9167;DHT22;4618;48.818;9.088;2023-06-14T04:36:11;11.00;99.90
9167;DHT22;4618;48.818;9.088;2023-06-14T04:38:42;11.20;99.90
9167;DHT22;4618;48.818;9.088;2023-06-14T04:41:10;11.20;99.90
9167;DHT22;4618;48.818;9.088;2023-06-14T04:43:37;11.40;99.90
9167;DHT22;4618;48.818;9.088;2023-06-14T04:46:06;11.50;99.90
9167;DHT22;4618;48.818;9.088;2023-06-14T04:48:37;11.60;99.90
9167;DHT22;4618;48.818;9.088;2023-06-14T04:51:03;11.80;92.70
9167;DHT22;4618;48.818;9.088;2023-06-14T04:53:29;11.90;64.20
9167;DHT22;4618;48.818;9.088;2023-06-14T04:55:55;12.00;47.70
9167;DHT22;4618;48.818;9.088;2023-06-14T04:58:20;12.20;23.80
9167;DHT22;4618;48.818;9.088;2023-06-14T05:00:46;12.30;36.80
9167;DHT22;4618;48.818;9.088;2023-06-14T05:03:11;12.30;99.90
9167;DHT22;4618;48.818;9.088;2023-06-14T05:05:39;12.30;99.90
9167;DHT22;4618;48.818;9.088;2023-06-14T05:08:05;12.40;99.70
9167;DHT22;4618;48.818;9.088;2023-06-14T05:10:31;12.60;20.20
9167;DHT22;4618;48.818;9.088;2023-06-14T05:12:56;12.70;1.00
9167;DHT22;4618;48.818;9.088;2023-06-14T05:15:22;12.90;1.00
9167;DHT22;4618;48.818;9.088;2023-06-14T05:17:50;13.00;1.00
9167;DHT22;4618;48.818;9.088;2023-06-14T05:20:21;13.10;1.00
9167;DHT22;4618;48.818;9.088;2023-06-14T05:22:48;13.20;1.00
9167;DHT22;4618;48.818;9.088;2023-06-14T05:25:15;13.50;1.00
9167;DHT22;4618;48.818;9.088;2023-06-14T05:27:40;13.60;1.00
9167;DHT22;4618;48.818;9.088;2023-06-14T05:30:07;13.80;1.00
9167;DHT22;4618;48.818;9.088;2023-06-14T05:32:33;14.00;1.00
9167;DHT22;4618;48.818;9.088;2023-06-14T05:34:59;14.20;1.00
9167;DHT22;4618;48.818;9.088;2023-06-14T05:37:25;14.30;1.00
9167;DHT22;4618;48.818;9.088;2023-06-14T05:39:50;14.40;1.00
9167;DHT22;4618;48.818;9.088;2023-06-14T05:42:16;14.60;1.00
9167;DHT22;4618;48.818;9.088;2023-06-14T05:44:41;14.70;1.00
9167;DHT22;4618;48.818;9.088;2023-06-14T05:47:07;14.80;1.00
9167;DHT22;4618;48.818;9.088;2023-06-14T05:49:32;14.90;1.00
9167;DHT22;4618;48.818;9.088;2023-06-14T05:51:58;14.90;1.00
9167;DHT22;4618;48.818;9.088;2023-06-14T05:54:23;15.10;1.00
9167;DHT22;4618;48.818;9.088;2023-06-14T05:56:49;15.30;1.00
9167;DHT22;4618;48.818;9.088;2023-06-14T05:59:14;15.30;1.00
9167;DHT22;4618;48.818;9.088;2023-06-14T06:01:40;15.50;1.00
9167;DHT22;4618;48.818;9.088;2023-06-14T06:04:06;15.50;1.00
9167;DHT22;4618;48.818;9.088;2023-06-14T06:06:31;15.60;1.00
9167;DHT22;4618;48.818;9.088;2023-06-14T06:08:58;15.70;1.00
9167;DHT22;4618;48.818;9.088;2023-06-14T06:11:23;15.80;1.00
9167;DHT22;4618;48.818;9.088;2023-06-14T06:13:49;15.90;1.00
9167;DHT22;4618;48.818;9.088;2023-06-14T06:16:15;16.00;1.00
9167;DHT22;4618;48.818;9.088;2023-06-14T06:18:40;16.10;1.00
9167;DHT22;4618;48.818;9.088;2023-06-14T06:21:06;16.20;1.00
9167;DHT22;4618;48.818;9.088;2023-06-14T06:23:32;16.20;1.00
9167;DHT22;4618;48.818;9.088;2023-06-14T06:25:57;16.30;1.00
9167;DHT22;4618;48.818;9.088;2023-06-14T06:28:23;16.40;1.00
9167;DHT22;4618;48.818;9.088;2023-06-14T06:30:48;16.40;1.00
9167;DHT22;4618;48.818;9.088;2023-06-14T06:33:15;16.60;1.00
9167;DHT22;4618;48.818;9.088;2023-06-14T06:35:41;16.60;1.00
9167;DHT22;4618;48.818;9.088;2023-06-14T06:38:07;16.70;1.00
9167;DHT22;4618;48.818;9.088;2023-06-14T06:40:34;16.70;1.00
9167;DHT22;4618;48.818;9.088;2023-06-14T06:42:59;16.90;1.00
9167;DHT22;4618;48.818;9.088;2023-06-14T06:45:25;17.00;1.00
9167;DHT22;4618;48.818;9.088;2023-06-14T06:47:51;17.10;1.00
9167;DHT22;4618;48.818;9.088;2023-06-14T06:50:18;17.20;1.00
9167;DHT22;4618;48.818;9.088;2023-06-14T06:52:44;17.20;1.00
9167;DHT22;4618;48.818;9.088;2023-06-14T06:55:10;17.30;1.00
9167;DHT22;4618;48.818;9.088;2023-06-14T06:57:36;17.40;1.00
9167;DHT22;4618;48.818;9.088;2023-06-14T07:00:02;17.50;1.00
9167;DHT22;4618;48.818;9.088;2023-06-14T07:02:31;17.60;1.00
9167;DHT22;4618;48.818;9.088;2023-06-14T07:04:56;17.70;1.00
9167;DHT22;4618;48.818;9.088;2023-06-14T07:07:22;17.90;1.00
9167;DHT22;4618;48.818;9.088;2023-06-14T07:09:47;17.90;1.00
9167;DHT22;4618;48.818;9.088;2023-06-14T07:12:13;18.00;1.00
9167;DHT22;4618;48.818;9.088;2023-06-14T07:14:38;18.10;1.00
9167;DHT22;4618;48.818;9.088;2023-06-14T07:17:04;18.20;1.00
9167;DHT22;4618;48.818;9.088;2023-06-14T07:19:30;18.20;1.00
9167;DHT22;4618;48.818;9.088;2023-06-14T07:21:56;18.40;1.00
9167;DHT22;4618;48.818;9.088;2023-06-14T07:24:23;18.60;1.00
9167;DHT22;4618;48.818;9.088;2023-06-14T07:26:49;18.90;1.00
9167;DHT22;4618;48.818;9.088;2023-06-14T07:29:15;19.10;1.00
9167;DHT22;4618;48.818;9.088;2023-06-14T07:31:41;19.50;1.00
9167;DHT22;4618;48.818;9.088;2023-06-14T07:34:07;19.80;1.00
9167;DHT22;4618;48.818;9.088;2023-06-14T07:36:32;20.30;1.00
9167;DHT22;4618;48.818;9.088;2023-06-14T07:38:58;20.80;1.00
9167;DHT22;4618;48.818;9.088;2023-06-14T07:41:24;20.80;1.00
9167;DHT22;4618;48.818;9.088;2023-06-14T07:43:51;21.30;1.00
9167;DHT22;4618;48.818;9.088;2023-06-14T07:46:16;21.60;1.00
9167;DHT22;4618;48.818;9.088;2023-06-14T07:48:42;21.90;1.00
9167;DHT22;4618;48.818;9.088;2023-06-14T07:53:33;22.70;1.00
9167;DHT22;4618;48.818;9.088;2023-06-14T07:55:59;22.90;1.00
9167;DHT22;4618;48.818;9.088;2023-06-14T08:42:19;26.00;99.90
9167;DHT22;4618;48.818;9.088;2023-06-14T08:44:46;25.80;1.00
9167;DHT22;4618;48.818;9.088;2023-06-14T08:52:08;26.90;99.90
9167;DHT22;4618;48.818;9.088;2023-06-14T08:54:36;27.10;99.90
9167;DHT22;4618;48.818;9.088;2023-06-14T08:57:11;27.30;99.90
9167;DHT22;4618;48.818;9.088;2023-06-14T08:59:47;27.10;99.90
9167;DHT22;4618;48.818;9.088;2023-06-14T09:02:18;27.30;99.90
9167;DHT22;4618;48.818;9.088;2023-06-14T09:04:45;27.30;99.90
9167;DHT22;4618;48.818;9.088;2023-06-14T09:07:11;26.90;99.90
9167;DHT22;4618;48.818;9.088;2023-06-14T09:09:41;27.20;99.90
9167;DHT22;4618;48.818;9.088;2023-06-14T09:12:10;27.60;99.90
9167;DHT22;4618;48.818;9.088;2023-06-14T09:14:37;27.40;99.90
9167;DHT22;4618;48.818;9.088;2023-06-14T09:24:26;28.30;99.90
9167;DHT22;4618;48.818;9.088;2023-06-14T09:26:51;27.10;99.90
9167;DHT22;4618;48.818;9.088;2023-06-14T09:41:39;29.50;99.90
9167;DHT22;4618;48.818;9.088;2023-06-14T10:03:44;32.20;99.90
9167;DHT22;4618;48.818;9.088;2023-06-14T10:08:36;32.70;99.90
9167;DHT22;4618;48.818;9.088;2023-06-14T10:13:32;32.70;99.90
9167;DHT22;4618;48.818;9.088;2023-06-14T10:23:56;32.10;99.90
9167;DHT22;4618;48.818;9.088;2023-06-14T10:29:07;33.10;59.50
9167;DHT22;4618;48.818;9.088;2023-06-14T10:34:12;32.40;99.90
9167;DHT22;4618;48.818;9.088;2023-06-14T10:39:28;29.90;1.00
9167;DHT22;4618;48.818;9.088;2023-06-14T10:41:56;30.60;1.00
9167;DHT22;4618;48.818;9.088;2023-06-14T10:46:49;32.40;1.00
9167;DHT22;4618;48.818;9.088;2023-06-14T10:49:19;32.90;1.00
9167;DHT22;4618;48.818;9.088;2023-06-14T10:51:49;33.30;1.00
9167;DHT22;4618;48.818;9.088;2023-06-14T10:54:16;34.20;99.90
9167;DHT22;4618;48.818;9.088;2023-06-14T10:56:49;34.60;99.90
9167;DHT22;4618;48.818;9.088;2023-06-14T11:01:58;31.90;1.00
9167;DHT22;4618;48.818;9.088;2023-06-14T11:04:52;30.30;99.90
9167;DHT22;4618;48.818;9.088;2023-06-14T11:07:55;28.60;99.90
9167;DHT22;4618;48.818;9.088;2023-06-14T11:10:40;27.40;99.90
9167;DHT22;4618;48.818;9.088;2023-06-14T11:13:07;27.70;99.90
9167;DHT22;4618;48.818;9.088;2023-06-14T11:15:37;29.30;99.90
9167;DHT22;4618;48.818;9.088;2023-06-14T11:18:07;30.20;99.90
9167;DHT22;4618;48.818;9.088;2023-06-14T11:20:34;31.30;99.90
9167;DHT22;4618;48.818;9.088;2023-06-14T11:23:01;32.50;99.90
9167;DHT22;4618;48.818;9.088;2023-06-14T11:25:27;33.90;99.90
9167;DHT22;4618;48.818;9.088;2023-06-14T11:27:56;33.80;99.90
9167;DHT22;4618;48.818;9.088;2023-06-14T11:30:22;33.60;99.90
9167;DHT22;4618;48.818;9.088;2023-06-14T11:32:49;33.70;99.90
9167;DHT22;4618;48.818;9.088;2023-06-14T11:37:45;34.20;99.90
9167;DHT22;4618;48.818;9.088;2023-06-14T11:40:11;34.20;99.90
9167;DHT22;4618;48.818;9.088;2023-06-14T11:45:07;34.70;99.90
9167;DHT22;4618;48.818;9.088;2023-06-14T11:47:38;34.60;1.00
9167;DHT22;4618;48.818;9.088;2023-06-14T11:50:05;34.00;1.00
9167;DHT22;4618;48.818;9.088;2023-06-14T11:52:32;33.80;1.00
9167;DHT22;4618;48.818;9.088;2023-06-14T11:54:58;33.90;1.00
9167;DHT22;4618;48.818;9.088;2023-06-14T11:57:24;34.00;1.00
9167;DHT22;4618;48.818;9.088;2023-06-14T11:59:50;34.30;99.90
9167;DHT22;4618;48.818;9.088;2023-06-14T12:02:16;34.70;99.90
9167;DHT22;4618;48.818;9.088;2023-06-14T12:04:42;35.10;99.90
9167;DHT22;4618;48.818;9.088;2023-06-14T12:07:12;35.10;99.90
9167;DHT22;4618;48.818;9.088;2023-06-14T12:12:35;34.70;99.90
9167;DHT22;4618;48.818;9.088;2023-06-14T12:15:03;33.80;99.90
9167;DHT22;4618;48.818;9.088;2023-06-14T12:17:32;33.10;99.90
9167;DHT22;4618;48.818;9.088;2023-06-14T12:19:57;32.90;99.90
9167;DHT22;4618;48.818;9.088;2023-06-14T12:22:23;32.30;99.90
9167;DHT22;4618;48.818;9.088;2023-06-14T12:24:48;33.40;99.90
9167;DHT22;4618;48.818;9.088;2023-06-14T12:27:15;34.70;99.90
9167;DHT22;4618;48.818;9.088;2023-06-14T12:29:44;35.20;99.90
9167;DHT22;4618;48.818;9.088;2023-06-14T12:32:10;34.90;99.90
9167;DHT22;4618;48.818;9.088;2023-06-14T12:34:36;34.50;99.90
9167;DHT22;4618;48.818;9.088;2023-06-14T12:37:02;34.50;99.90
9167;DHT22;4618;48.818;9.088;2023-06-14T12:39:29;34.60;99.90
9167;DHT22;4618;48.818;9.088;2023-06-14T12:41:57;34.30;99.90
9167;DHT22;4618;48.818;9.088;2023-06-14T12:44:23;35.10;99.90
9167;DHT22;4618;48.818;9.088;2023-06-14T12:46:48;35.70;99.90
9167;DHT22;4618;48.818;9.088;2023-06-14T12:49:16;36.10;99.90
9167;DHT22;4618;48.818;9.088;2023-06-14T12:51:42;36.20;99.90
9167;DHT22;4618;48.818;9.088;2023-06-14T12:54:07;36.20;99.90
9167;DHT22;4618;48.818;9.088;2023-06-14T12:56:33;35.80;99.90
9167;DHT22;4618;48.818;9.088;2023-06-14T12:58:59;34.70;99.90
9167;DHT22;4618;48.818;9.088;2023-06-14T13:01:25;34.60;99.90
9167;DHT22;4618;48.818;9.088;2023-06-14T13:03:51;34.00;99.90
9167;DHT22;4618;48.818;9.088;2023-06-14T13:06:20;32.60;99.90
9167;DHT22;4618;48.818;9.088;2023-06-14T13:08:47;32.70;99.90
9167;DHT22;4618;48.818;9.088;2023-06-14T13:11:12;32.70;99.90
9167;DHT22;4618;48.818;9.088;2023-06-14T13:13:38;33.30;99.90
9167;DHT22;4618;48.818;9.088;2023-06-14T13:16:04;33.50;99.90
9167;DHT22;4618;48.818;9.088;2023-06-14T13:18:29;33.70;99.90
9167;DHT22;4618;48.818;9.088;2023-06-14T13:20:55;34.20;99.90
9167;DHT22;4618;48.818;9.088;2023-06-14T13:23:20;33.80;99.90
9167;DHT22;4618;48.818;9.088;2023-06-14T13:25:46;34.60;99.90
9167;DHT22;4618;48.818;9.088;2023-06-14T13:28:12;34.10;99.90
9167;DHT22;4618;48.818;9.088;2023-06-14T13:30:37;34.40;99.90
9167;DHT22;4618;48.818;9.088;2023-06-14T13:33:03;34.60;99.90
9167;DHT22;4618;48.818;9.088;2023-06-14T13:35:28;34.40;99.90
9167;DHT22;4618;48.818;9.088;2023-06-14T13:37:54;34.80;99.90
9167;DHT22;4618;48.818;9.088;2023-06-14T13:40:20;34.70;99.90
9167;DHT22;4618;48.818;9.088;2023-06-14T13:42:46;34.70;99.90
9167;DHT22;4618;48.818;9.088;2023-06-14T13:45:12;34.70;99.90
9167;DHT22;4618;48.818;9.088;2023-06-14T13:47:38;35.30;99.90
9167;DHT22;4618;48.818;9.088;2023-06-14T13:50:04;35.90;99.90
9167;DHT22;4618;48.818;9.088;2023-06-14T13:52:30;35.70;99.90
9167;DHT22;4618;48.818;9.088;2023-06-14T13:54:56;35.80;99.90
9167;DHT22;4618;48.818;9.088;2023-06-14T13:57:21;34.40;99.90
9167;DHT22;4618;48.818;9.088;2023-06-14T13:59:47;33.50;99.90
9167;DHT22;4618;48.818;9.088;2023-06-14T14:02:13;33.70;99.90
9167;DHT22;4618;48.818;9.088;2023-06-14T14:04:39;34.50;99.90
9167;DHT22;4618;48.818;9.088;2023-06-14T14:07:05;35.00;99.90
9167;DHT22;4618;48.818;9.088;2023-06-14T14:09:32;35.60;99.90
9167;DHT22;4618;48.818;9.088;2023-06-14T14:11:58;35.80;99.90
9167;DHT22;4618;48.818;9.088;2023-06-14T14:14:24;36.20;99.90
9167;DHT22;4618;48.818;9.088;2023-06-14T14:16:50;36.00;99.90
9167;DHT22;4618;48.818;9.088;2023-06-14T14:19:23;34.40;99.90
9167;DHT22;4618;48.818;9.088;2023-06-14T14:21:49;33.80;99.90
9167;DHT22;4618;48.818;9.088;2023-06-14T14:24:14;34.20;99.90
9167;DHT22;4618;48.818;9.088;2023-06-14T14:26:41;34.10;99.90
9167;DHT22;4618;48.818;9.088;2023-06-14T14:29:06;34.20;99.90
9167;DHT22;4618;48.818;9.088;2023-06-14T14:31:32;34.50;99.90
9167;DHT22;4618;48.818;9.088;2023-06-14T14:33:58;35.60;99.90
9167;DHT22;4618;48.818;9.088;2023-06-14T14:36:23;35.00;99.90
9167;DHT22;4618;48.818;9.088;2023-06-14T14:38:49;32.90;99.90
9167;DHT22;4618;48.818;9.088;2023-06-14T14:41:17;30.90;99.90
9167;DHT22;4618;48.818;9.088;2023-06-14T14:43:42;29.80;99.90
9167;DHT22;4618;48.818;9.088;2023-06-14T14:48:34;29.20;99.90
9167;DHT22;4618;48.818;9.088;2023-06-14T14:51:00;30.70;99.90
9167;DHT22;4618;48.818;9.088;2023-06-14T14:53:25;31.50;99.90
9167;DHT22;4618;48.818;9.088;2023-06-14T14:55:51;32.20;99.90
9167;DHT22;4618;48.818;9.088;2023-06-14T14:58:17;32.80;99.90
9167;DHT22;4618;48.818;9.088;2023-06-14T15:00:44;33.00;99.90
9167;DHT22;4618;48.818;9.088;2023-06-14T15:03:10;33.30;99.90
9167;DHT22;4618;48.818;9.088;2023-06-14T15:05:35;33.20;99.90
9167;DHT22;4618;48.818;9.088;2023-06-14T15:08:02;33.40;99.90
9167;DHT22;4618;48.818;9.088;2023-06-14T15:10:28;33.90;99.90
9167;DHT22;4618;48.818;9.088;2023-06-14T15:12:54;33.80;99.90
9167;DHT22;4618;48.818;9.088;2023-06-14T15:15:19;33.60;99.90
9167;DHT22;4618;48.818;9.088;2023-06-14T15:17:45;33.70;99.90
9167;DHT22;4618;48.818;9.088;2023-06-14T15:20:11;33.50;99.90
9167;DHT22;4618;48.818;9.088;2023-06-14T15:22:38;34.00;99.90
9167;DHT22;4618;48.818;9.088;2023-06-14T15:25:03;34.30;99.90
9167;DHT22;4618;48.818;9.088;2023-06-14T15:27:29;33.90;99.90
9167;DHT22;4618;48.818;9.088;2023-06-14T15:29:55;33.80;99.90
9167;DHT22;4618;48.818;9.088;2023-06-14T15:32:20;33.70;99.90
9167;DHT22;4618;48.818;9.088;2023-06-14T15:34:46;33.50;99.90
9167;DHT22;4618;48.818;9.088;2023-06-14T15:37:12;33.10;99.90
9167;DHT22;4618;48.818;9.088;2023-06-14T15:39:38;32.00;99.90
9167;DHT22;4618;48.818;9.088;2023-06-14T15:42:04;30.90;99.90
9167;DHT22;4618;48.818;9.088;2023-06-14T15:44:31;30.60;99.90
9167;DHT22;4618;48.818;9.088;2023-06-14T15:46:57;31.00;99.90
9167;DHT22;4618;48.818;9.088;2023-06-14T15:49:22;31.60;99.90
9167;DHT22;4618;48.818;9.088;2023-06-14T15:51:48;31.60;99.90
9167;DHT22;4618;48.818;9.088;2023-06-14T15:54:13;30.60;99.90
9167;DHT22;4618;48.818;9.088;2023-06-14T15:56:39;30.00;99.90
9167;DHT22;4618;48.818;9.088;2023-06-14T15:59:05;30.80;99.90
9167;DHT22;4618;48.818;9.088;2023-06-14T16:01:32;31.30;99.90
9167;DHT22;4618;48.818;9.088;2023-06-14T16:03:58;31.10;99.90
9167;DHT22;4618;48.818;9.088;2023-06-14T16:06:23;30.80;99.90
9167;DHT22;4618;48.818;9.088;2023-06-14T16:08:49;31.10;99.90
9167;DHT22;4618;48.818;9.088;2023-06-14T16:11:15;30.70;99.90
9167;DHT22;4618;48.818;9.088;2023-06-14T16:13:41;29.40;99.90
9167;DHT22;4618;48.818;9.088;2023-06-14T16:16:07;28.80;99.90
9167;DHT22;4618;48.818;9.088;2023-06-14T16:18:33;28.20;99.90
9167;DHT22;4618;48.818;9.088;2023-06-14T16:20:59;27.40;99.90
9167;DHT22;4618;48.818;9.088;2023-06-14T16:23:25;27.20;99.90
9167;DHT22;4618;48.818;9.088;2023-06-14T16:25:51;27.80;99.90
9167;DHT22;4618;48.818;9.088;2023-06-14T16:28:16;28.40;99.90
9167;DHT22;4618;48.818;9.088;2023-06-14T16:30:42;29.20;99.90
9167;DHT22;4618;48.818;9.088;2023-06-14T16:33:07;29.60;99.90
9167;DHT22;4618;48.818;9.088;2023-06-14T16:35:33;29.60;99.90
9167;DHT22;4618;48.818;9.088;2023-06-14T16:37:58;30.20;99.90
9167;DHT22;4618;48.818;9.088;2023-06-14T16:40:25;30.60;99.90
9167;DHT22;4618;48.818;9.088;2023-06-14T16:42:50;30.60;99.90
9167;DHT22;4618;48.818;9.088;2023-06-14T16:45:16;30.60;99.90
9167;DHT22;4618;48.818;9.088;2023-06-14T16:47:42;31.00;99.90
9167;DHT22;4618;48.818;9.088;2023-06-14T16:50:08;31.00;99.90
9167;DHT22;4618;48.818;9.088;2023-06-14T16:52:33;30.80;99.90
9167;DHT22;4618;48.818;9.088;2023-06-14T16:54:59;30.50;99.90
9167;DHT22;4618;48.818;9.088;2023-06-14T16:57:25;30.10;99.90
9167;DHT22;4618;48.818;9.088;2023-06-14T16:59:50;30.10;99.90
9167;DHT22;4618;48.818;9.088;2023-06-14T17:02:16;30.00;99.90
9167;DHT22;4618;48.818;9.088;2023-06-14T17:04:41;30.00;99.90
9167;DHT22;4618;48.818;9.088;2023-06-14T17:07:07;29.70;99.90
9167;DHT22;4618;48.818;9.088;2023-06-14T17:09:32;29.70;99.90
9167;DHT22;4618;48.818;9.088;2023-06-14T17:11:58;29.70;99.90
9167;DHT22;4618;48.818;9.088;2023-06-14T17:14:24;29.50;99.90
9167;DHT22;4618;48.818;9.088;2023-06-14T17:16:49;29.20;99.90
9167;DHT22;4618;48.818;9.088;2023-06-14T17:19:15;29.20;99.90
9167;DHT22;4618;48.818;9.088;2023-06-14T17:21:41;29.10;99.90
9167;DHT22;4618;48.818;9.088;2023-06-14T17:24:12;29.00;99.90
9167;DHT22;4618;48.818;9.088;2023-06-14T17:26:38;28.70;99.90
9167;DHT22;4618;48.818;9.088;2023-06-14T17:29:03;28.30;99.90
9167;DHT22;4618;48.818;9.088;2023-06-14T17:31:29;28.30;99.90
9167;DHT22;4618;48.818;9.088;2023-06-14T17:33:54;28.60;99.90
9167;DHT22;4618;48.818;9.088;2023-06-14T17:36:20;28.50;99.90
9167;DHT22;4618;48.818;9.088;2023-06-14T17:38:45;28.00;99.90
9167;DHT22;4618;48.818;9.088;2023-06-14T17:41:11;27.90;99.90
9167;DHT22;4618;48.818;9.088;2023-06-14T17:43:39;27.70;99.90
9167;DHT22;4618;48.818;9.088;2023-06-14T17:46:05;27.80;99.90
9167;DHT22;4618;48.818;9.088;2023-06-14T17:48:31;27.80;99.90
9167;DHT22;4618;48.818;9.088;2023-06-14T17:51:03;27.80;99.90
9167;DHT22;4618;48.818;9.088;2023-06-14T17:53:29;27.90;99.90
9167;DHT22;4618;48.818;9.088;2023-06-14T17:55:55;27.70;99.90
9167;DHT22;4618;48.818;9.088;2023-06-14T17:58:21;27.70;99.90
9167;DHT22;4618;48.818;9.088;2023-06-14T18:00:47;27.50;99.90
9167;DHT22;4618;48.818;9.088;2023-06-14T18:03:13;27.60;99.90
9167;DHT22;4618;48.818;9.088;2023-06-14T18:05:40;27.50;99.90
9167;DHT22;4618;48.818;9.088;2023-06-14T18:08:06;27.20;99.90
9167;DHT22;4618;48.818;9.088;2023-06-14T18:10:32;26.90;99.90
9167;DHT22;4618;48.818;9.088;2023-06-14T18:12:57;26.40;99.90
9167;DHT22;4618;48.818;9.088;2023-06-14T18:15:23;26.20;99.90
9167;DHT22;4618;48.818;9.088;2023-06-14T18:17:49;26.20;99.90
9167;DHT22;4618;48.818;9.088;2023-06-14T18:20:16;26.10;99.90
9167;DHT22;4618;48.818;9.088;2023-06-14T18:22:42;25.80;99.90
9167;DHT22;4618;48.818;9.088;2023-06-14T18:25:08;25.60;99.90
9167;DHT22;4618;48.818;9.088;2023-06-14T18:27:34;25.60;99.90
9167;DHT22;4618;48.818;9.088;2023-06-14T18:29:59;25.80;99.90
9167;DHT22;4618;48.818;9.088;2023-06-14T18:32:25;25.30;99.90
9167;DHT22;4618;48.818;9.088;2023-06-14T18:34:52;25.10;99.90
9167;DHT22;4618;48.818;9.088;2023-06-14T18:37:18;24.70;99.90
9167;DHT22;4618;48.818;9.088;2023-06-14T18:39:43;24.40;99.90
9167;DHT22;4618;48.818;9.088;2023-06-14T18:42:09;24.30;99.90
9167;DHT22;4618;48.818;9.088;2023-06-14T18:44:36;24.20;99.90
9167;DHT22;4618;48.818;9.088;2023-06-14T18:47:02;23.90;99.90
9167;DHT22;4618;48.818;9.088;2023-06-14T18:49:27;23.80;99.90
9167;DHT22;4618;48.818;9.088;2023-06-14T18:51:53;23.50;99.90
9167;DHT22;4618;48.818;9.088;2023-06-14T18:54:18;23.30;99.90
9167;DHT22;4618;48.818;9.088;2023-06-14T18:56:44;23.10;99.90
9167;DHT22;4618;48.818;9.088;2023-06-14T18:59:11;23.00;99.90
9167;DHT22;4618;48.818;9.088;2023-06-14T19:01:36;22.90;99.90
9167;DHT22;4618;48.818;9.088;2023-06-14T19:04:02;22.60;99.90
9167;DHT22;4618;48.818;9.088;2023-06-14T19:06:28;22.30;99.90
9167;DHT22;4618;48.818;9.088;2023-06-14T19:08:53;22.10;99.90
9167;DHT22;4618;48.818;9.088;2023-06-14T19:11:19;21.80;99.90
9167;DHT22;4618;48.818;9.088;2023-06-14T19:13:45;21.60;1.00
9167;DHT22;4618;48.818;9.088;2023-06-14T19:16:10;21.40;99.90
9167;DHT22;4618;48.818;9.088;2023-06-14T19:18:39;21.10;99.90
9167;DHT22;4618;48.818;9.088;2023-06-14T19:21:04;20.80;99.90